Time;durP1;ratioP1;P1;durP2;ratioP2;P2;SDS_P1;SDS_P2;PMS_P1;PMS_P2;Temp;Humidity;BMP_temperature;BMP_pressure;BME280_temperature;BME280_humidity;BME280_pressure;Samples;Min_cycle;Max_cycle;Signal;HPM_P1;HPM_P2
2023/04/25 00:00:15;;;;;;;;;;;6.20;99.90;;;;;;5015960;28;19924;-80
2023/04/25 00:02:42;;;;;;;;;;;6.10;99.90;;;;;;5018719;28;19983;-79
2023/04/25 00:05:09;;;;;;;;;;;6.10;99.90;;;;;;5016088;28;19968;-80
2023/04/25 00:07:36;;;;;;;;;;;6.10;99.90;;;;;;5015225;28;19925;-80
2023/04/25 00:10:03;;;;;;;;;;;6.10;99.90;;;;;;5013750;28;20344;-80
2023/04/25 00:12:30;;;;;;;;;;;6.10;99.90;;;;;;5016983;28;19924;-79
2023/04/25 00:14:57;;;;;;;;;;;6.10;99.90;;;;;;5016181;28;19956;-79
2023/04/25 00:17:24;;;;;;;;;;;6.00;99.90;;;;;;5017031;28;20280;-79
2023/04/25 00:19:51;;;;;;;;;;;6.00;99.90;;;;;;5033663;28;19924;-79
2023/04/25 00:22:18;;;;;;;;;;;6.00;99.90;;;;;;5017087;28;19925;-79
2023/04/25 00:24:45;;;;;;;;;;;6.00;99.90;;;;;;5013311;28;20049;-79
2023/04/25 00:27:11;;;;;;;;;;;5.90;99.90;;;;;;5016382;28;20222;-79
2023/04/25 00:29:38;;;;;;;;;;;5.90;99.90;;;;;;4999648;28;20388;-80
2023/04/25 00:32:05;;;;;;;;;;;5.80;99.90;;;;;;5017746;28;20514;-80
2023/04/25 00:34:31;;;;;;;;;;;5.80;99.90;;;;;;5016861;28;19932;-80
2023/04/25 00:36:58;;;;;;;;;;;5.70;99.90;;;;;;5014704;28;20020;-80
2023/04/25 00:39:25;;;;;;;;;;;5.70;99.90;;;;;;5013312;28;19932;-80
2023/04/25 00:41:54;;;;;;;;;;;5.70;99.90;;;;;;5016608;28;19960;-80
2023/04/25 00:44:21;;;;;;;;;;;5.60;99.90;;;;;;5016016;28;20414;-80
2023/04/25 00:46:48;;;;;;;;;;;5.60;99.90;;;;;;5015860;28;19929;-80
2023/04/25 00:49:16;;;;;;;;;;;5.50;99.90;;;;;;5015256;28;19971;-79
2023/04/25 00:51:44;;;;;;;;;;;5.50;99.90;;;;;;5014920;28;20080;-80
2023/04/25 00:54:12;;;;;;;;;;;5.40;99.90;;;;;;5012883;28;20670;-80
2023/04/25 00:56:38;;;;;;;;;;;5.40;99.90;;;;;;5017957;28;19925;-80
2023/04/25 00:59:05;;;;;;;;;;;5.30;99.90;;;;;;5014999;28;19925;-80
2023/04/25 01:01:32;;;;;;;;;;;5.30;99.90;;;;;;5015971;28;20327;-80
2023/04/25 01:03:58;;;;;;;;;;;5.20;99.90;;;;;;5016304;28;20366;-79
2023/04/25 01:06:25;;;;;;;;;;;5.20;99.90;;;;;;5032038;28;20258;-80
2023/04/25 01:08:52;;;;;;;;;;;5.10;99.90;;;;;;5014769;28;19972;-80
2023/04/25 01:11:18;;;;;;;;;;;5.10;99.90;;;;;;5013280;28;19921;-80
2023/04/25 01:13:45;;;;;;;;;;;5.10;99.90;;;;;;5017666;28;19983;-80
2023/04/25 01:16:12;;;;;;;;;;;5.00;99.90;;;;;;5016954;28;19925;-80
2023/04/25 01:18:38;;;;;;;;;;;5.00;99.90;;;;;;5016373;28;19925;-79
2023/04/25 01:21:09;;;;;;;;;;;4.90;99.90;;;;;;5016082;28;19935;-80
2023/04/25 01:23:37;;;;;;;;;;;4.90;99.90;;;;;;5015824;28;19929;-80
2023/04/25 01:26:04;;;;;;;;;;;4.80;99.90;;;;;;5016511;28;19929;-80
2023/04/25 01:28:31;;;;;;;;;;;4.70;99.90;;;;;;5017914;28;19985;-80
2023/04/25 01:30:57;;;;;;;;;;;4.70;99.90;;;;;;4322142;28;10020679;-80
2023/04/25 01:33:24;;;;;;;;;;;4.70;99.90;;;;;;5019743;28;19959;-79
2023/04/25 01:35:51;;;;;;;;;;;4.60;99.90;;;;;;5019925;28;19937;-80
2023/04/25 01:38:17;;;;;;;;;;;4.60;99.90;;;;;;5020349;28;20016;-80
2023/04/25 01:40:44;;;;;;;;;;;4.50;99.90;;;;;;5018291;28;20456;-80
2023/04/25 01:43:11;;;;;;;;;;;4.50;99.90;;;;;;5022079;28;20043;-79
2023/04/25 01:45:40;;;;;;;;;;;4.50;99.90;;;;;;5019676;28;19921;-79
2023/04/25 01:48:08;;;;;;;;;;;4.40;99.90;;;;;;4676844;28;10000309;-79
2023/04/25 01:50:35;;;;;;;;;;;4.40;99.90;;;;;;5023469;28;19925;-79
2023/04/25 01:53:01;;;;;;;;;;;4.30;99.90;;;;;;5023246;28;20028;-79
2023/04/25 01:55:28;;;;;;;;;;;4.30;99.90;;;;;;5020181;28;20444;-79
2023/04/25 01:57:55;;;;;;;;;;;4.30;99.90;;;;;;5023404;28;19975;-79
2023/04/25 02:00:22;;;;;;;;;;;4.30;99.90;;;;;;5020401;28;20466;-79
2023/04/25 02:02:50;;;;;;;;;;;4.30;99.90;;;;;;5021885;28;19936;-80
2023/04/25 02:05:17;;;;;;;;;;;4.20;99.90;;;;;;5022929;28;19921;-79
2023/04/25 02:07:44;;;;;;;;;;;4.20;99.90;;;;;;5025179;28;19921;-79
2023/04/25 02:10:11;;;;;;;;;;;4.20;99.90;;;;;;5040568;28;19925;-79
2023/04/25 02:12:37;;;;;;;;;;;4.10;99.90;;;;;;5024780;28;20011;-79
2023/04/25 02:15:04;;;;;;;;;;;4.10;99.90;;;;;;5023732;28;20386;-79
2023/04/25 02:17:31;;;;;;;;;;;4.00;99.90;;;;;;5041369;28;19921;-79
2023/04/25 02:19:58;;;;;;;;;;;4.00;99.90;;;;;;5024329;28;19925;-79
2023/04/25 02:22:25;;;;;;;;;;;4.00;99.90;;;;;;5041712;28;20324;-79
2023/04/25 02:24:51;;;;;;;;;;;4.00;99.90;;;;;;5021683;28;19941;-78
2023/04/25 02:27:18;;;;;;;;;;;3.90;99.90;;;;;;5021173;28;19928;-79
2023/04/25 02:29:44;;;;;;;;;;;4.00;99.90;;;;;;5024887;28;19929;-79
2023/04/25 02:32:11;;;;;;;;;;;3.90;99.90;;;;;;5023778;28;20331;-79
2023/04/25 02:34:38;;;;;;;;;;;3.90;99.90;;;;;;5025985;28;19939;-79
2023/04/25 02:37:05;;;;;;;;;;;3.90;99.90;;;;;;5024690;28;19940;-79
2023/04/25 02:39:31;;;;;;;;;;;3.90;99.90;;;;;;5022708;28;20020;-79
2023/04/25 02:41:58;;;;;;;;;;;3.80;99.90;;;;;;5025028;28;19925;-79
2023/04/25 02:44:25;;;;;;;;;;;3.80;99.90;;;;;;5025833;28;20526;-79
2023/04/25 02:46:51;;;;;;;;;;;3.70;99.90;;;;;;5024364;28;19972;-79
2023/04/25 02:49:18;;;;;;;;;;;3.70;99.90;;;;;;5024529;28;19929;-79
2023/04/25 02:51:45;;;;;;;;;;;3.70;99.90;;;;;;5025707;28;19921;-79
2023/04/25 02:54:12;;;;;;;;;;;3.70;99.90;;;;;;5040134;28;19952;-79
2023/04/25 02:56:38;;;;;;;;;;;3.70;99.90;;;;;;5025844;28;19963;-80
2023/04/25 02:59:06;;;;;;;;;;;3.60;99.90;;;;;;5024078;28;20012;-79
2023/04/25 03:01:33;;;;;;;;;;;3.60;99.90;;;;;;5023037;28;19929;-80
2023/04/25 03:04:00;;;;;;;;;;;3.60;99.90;;;;;;5024501;28;19928;-80
2023/04/25 03:06:26;;;;;;;;;;;3.60;99.90;;;;;;5024544;28;19932;-80
2023/04/25 03:08:53;;;;;;;;;;;3.60;99.90;;;;;;5024054;28;19992;-79
2023/04/25 03:11:20;;;;;;;;;;;3.50;99.90;;;;;;5024117;28;20066;-79
2023/04/25 03:13:47;;;;;;;;;;;3.50;99.90;;;;;;5025839;28;20016;-80
2023/04/25 03:16:14;;;;;;;;;;;3.50;99.90;;;;;;5040446;28;20021;-80
2023/04/25 03:18:41;;;;;;;;;;;3.50;99.90;;;;;;5023898;28;20087;-79
2023/04/25 03:21:07;;;;;;;;;;;3.50;99.90;;;;;;5022138;28;20245;-80
2023/04/25 03:23:34;;;;;;;;;;;3.50;99.90;;;;;;5021670;28;19944;-79
2023/04/25 03:26:01;;;;;;;;;;;3.50;99.90;;;;;;5022572;28;19927;-79
2023/04/25 03:28:27;;;;;;;;;;;3.50;99.90;;;;;;5025555;28;20023;-79
2023/04/25 03:30:54;;;;;;;;;;;3.40;99.90;;;;;;5024858;28;19984;-80
2023/04/25 03:33:20;;;;;;;;;;;3.40;99.90;;;;;;5025387;28;20380;-79
2023/04/25 03:35:47;;;;;;;;;;;3.40;99.90;;;;;;5023679;28;19921;-79
2023/04/25 03:38:14;;;;;;;;;;;3.30;99.90;;;;;;5025437;28;19921;-79
2023/04/25 03:40:40;;;;;;;;;;;3.30;99.90;;;;;;5023708;28;20314;-79
2023/04/25 03:43:07;;;;;;;;;;;3.30;99.90;;;;;;5025265;28;19929;-80
2023/04/25 03:45:34;;;;;;;;;;;3.30;99.90;;;;;;5024880;28;19921;-79
2023/04/25 03:48:01;;;;;;;;;;;3.30;99.90;;;;;;5025425;28;20088;-79
2023/04/25 03:50:27;;;;;;;;;;;3.30;99.90;;;;;;5023749;28;19921;-80
2023/04/25 03:52:54;;;;;;;;;;;3.30;99.90;;;;;;5023266;28;19963;-79
2023/04/25 03:55:21;;;;;;;;;;;3.30;99.90;;;;;;5020868;28;19921;-79
2023/04/25 03:57:47;;;;;;;;;;;3.20;99.90;;;;;;5025118;28;19921;-80
2023/04/25 04:00:15;;;;;;;;;;;3.20;99.90;;;;;;5021938;28;19925;-79
2023/04/25 04:02:41;;;;;;;;;;;3.20;99.90;;;;;;5023347;28;20008;-79
2023/04/25 04:05:11;;;;;;;;;;;3.20;99.90;;;;;;5023222;28;19991;-79
2023/04/25 04:07:39;;;;;;;;;;;3.20;99.90;;;;;;5023603;28;19956;-79
2023/04/25 04:10:07;;;;;;;;;;;3.20;99.90;;;;;;5021382;28;20008;-79
2023/04/25 04:12:34;;;;;;;;;;;3.20;99.90;;;;;;5024005;28;20388;-79
2023/04/25 04:15:01;;;;;;;;;;;3.20;99.90;;;;;;5022583;28;19925;-79
2023/04/25 04:17:28;;;;;;;;;;;3.20;99.90;;;;;;5023238;28;19921;-79
2023/04/25 04:19:54;;;;;;;;;;;3.20;99.90;;;;;;5023258;28;20534;-79
2023/04/25 04:22:21;;;;;;;;;;;3.10;99.90;;;;;;5023490;28;19921;-79
2023/04/25 04:24:49;;;;;;;;;;;3.10;99.90;;;;;;5021656;28;19951;-80
2023/04/25 04:27:19;;;;;;;;;;;3.10;99.90;;;;;;5023998;28;19921;-79
2023/04/25 04:29:46;;;;;;;;;;;3.10;99.90;;;;;;5020802;28;19928;-79
2023/04/25 04:32:13;;;;;;;;;;;3.10;99.90;;;;;;5023492;28;19921;-80
2023/04/25 04:34:41;;;;;;;;;;;3.10;99.90;;;;;;5023089;28;20269;-79
2023/04/25 04:37:07;;;;;;;;;;;3.10;99.90;;;;;;5024542;28;20341;-78
2023/04/25 04:39:35;;;;;;;;;;;3.10;99.90;;;;;;5020273;28;19924;-78
2023/04/25 04:42:03;;;;;;;;;;;3.10;99.90;;;;;;5018337;28;20012;-79
2023/04/25 04:44:32;;;;;;;;;;;3.10;99.90;;;;;;5021098;28;19976;-79
2023/04/25 04:46:59;;;;;;;;;;;3.00;99.90;;;;;;5020640;28;19936;-78
2023/04/25 04:49:26;;;;;;;;;;;3.00;99.90;;;;;;5021228;28;19921;-78
2023/04/25 04:51:54;;;;;;;;;;;3.00;99.90;;;;;;5019791;28;19932;-78
2023/04/25 04:54:24;;;;;;;;;;;3.00;99.90;;;;;;5018251;28;19924;-78
2023/04/25 04:56:52;;;;;;;;;;;3.10;99.90;;;;;;5019716;28;19925;-79
2023/04/25 04:59:19;;;;;;;;;;;3.10;99.90;;;;;;5014005;28;19925;-79
2023/04/25 05:01:46;;;;;;;;;;;3.10;99.90;;;;;;5011510;28;19932;-79
2023/04/25 05:04:13;;;;;;;;;;;3.10;99.90;;;;;;5012445;28;20028;-79
2023/04/25 05:06:40;;;;;;;;;;;3.10;99.90;;;;;;5024686;28;19956;-78
2023/04/25 05:09:07;;;;;;;;;;;3.10;99.90;;;;;;5012491;28;20004;-79
2023/04/25 05:11:33;;;;;;;;;;;3.10;99.90;;;;;;5008235;28;19944;-79
2023/04/25 05:14:00;;;;;;;;;;;3.00;99.90;;;;;;5014154;28;19979;-79
2023/04/25 05:16:27;;;;;;;;;;;3.00;99.90;;;;;;5009678;28;19964;-77
2023/04/25 05:18:53;;;;;;;;;;;3.00;99.90;;;;;;5006717;28;20364;-78
2023/04/25 05:21:20;;;;;;;;;;;3.00;99.90;;;;;;5014645;28;19929;-78
2023/04/25 05:23:47;;;;;;;;;;;3.00;99.90;;;;;;5012346;28;20285;-78
2023/04/25 05:26:13;;;;;;;;;;;3.00;99.90;;;;;;5011617;28;19932;-78
2023/04/25 05:28:41;;;;;;;;;;;3.10;99.90;;;;;;5010556;28;20046;-77
2023/04/25 05:31:11;;;;;;;;;;;3.10;99.90;;;;;;5010123;28;19925;-78
2023/04/25 05:33:37;;;;;;;;;;;3.10;99.90;;;;;;5015090;28;19924;-81
2023/04/25 05:36:06;;;;;;;;;;;3.20;99.90;;;;;;5014629;28;19952;-81
2023/04/25 05:38:33;;;;;;;;;;;3.20;99.90;;;;;;5015218;28;19921;-81
2023/04/25 05:41:00;;;;;;;;;;;3.20;99.90;;;;;;5030708;28;19979;-80
2023/04/25 05:43:28;;;;;;;;;;;3.30;99.90;;;;;;5016435;28;20491;-81
2023/04/25 05:45:55;;;;;;;;;;;3.30;99.90;;;;;;5019504;28;21298;-81
2023/04/25 05:48:22;;;;;;;;;;;3.40;99.90;;;;;;5016588;28;19937;-81
2023/04/25 05:50:49;;;;;;;;;;;3.40;99.90;;;;;;5016090;28;19925;-82
2023/04/25 05:53:16;;;;;;;;;;;3.50;99.90;;;;;;5016090;28;20027;-82
2023/04/25 05:55:43;;;;;;;;;;;3.50;99.90;;;;;;5015104;28;20042;-81
2023/04/25 05:58:12;;;;;;;;;;;3.50;99.90;;;;;;5028550;28;20025;-80
2023/04/25 06:00:41;;;;;;;;;;;3.60;99.90;;;;;;5017059;28;20469;-80
2023/04/25 06:03:09;;;;;;;;;;;3.60;99.90;;;;;;5015184;28;19947;-81
2023/04/25 06:05:36;;;;;;;;;;;3.60;99.90;;;;;;5017762;28;20226;-82
2023/04/25 06:08:03;;;;;;;;;;;3.70;99.90;;;;;;5016323;28;19938;-80
2023/04/25 06:10:30;;;;;;;;;;;3.80;99.90;;;;;;5013257;28;19925;-81
2023/04/25 06:12:57;;;;;;;;;;;3.70;99.90;;;;;;5017137;28;19929;-82
2023/04/25 06:15:24;;;;;;;;;;;3.80;99.90;;;;;;5024651;28;19952;-83
2023/04/25 06:17:54;;;;;;;;;;;3.80;99.90;;;;;;5023773;28;19925;-82
2023/04/25 06:20:23;;;;;;;;;;;3.80;99.90;;;;;;5019244;28;19929;-83
2023/04/25 06:22:52;;;;;;;;;;;3.90;99.90;;;;;;5021082;28;20419;-84
2023/04/25 06:25:19;;;;;;;;;;;4.00;99.90;;;;;;5038610;28;19921;-83
2023/04/25 06:27:46;;;;;;;;;;;4.00;99.90;;;;;;5021753;28;19920;-82
2023/04/25 06:30:13;;;;;;;;;;;4.00;99.90;;;;;;5023137;28;19921;-83
2023/04/25 06:32:40;;;;;;;;;;;4.10;99.90;;;;;;5023135;28;19925;-83
2023/04/25 06:35:07;;;;;;;;;;;4.10;99.90;;;;;;5023182;28;19925;-83
2023/04/25 06:37:34;;;;;;;;;;;4.20;99.90;;;;;;5056977;28;19921;-81
2023/04/25 06:40:00;;;;;;;;;;;4.20;99.90;;;;;;5023563;28;20025;-79
2023/04/25 06:42:27;;;;;;;;;;;4.20;99.90;;;;;;5024321;28;20016;-81
2023/04/25 06:44:54;;;;;;;;;;;4.30;99.90;;;;;;5023662;28;19971;-81
2023/04/25 06:47:21;;;;;;;;;;;4.40;99.90;;;;;;5024330;28;19924;-81
2023/04/25 06:49:49;;;;;;;;;;;4.40;99.90;;;;;;5023968;28;19968;-81
2023/04/25 06:52:17;;;;;;;;;;;4.50;99.90;;;;;;5040117;28;20431;-79
2023/04/25 06:54:45;;;;;;;;;;;4.50;99.90;;;;;;5019026;28;20305;-79
2023/04/25 06:57:11;;;;;;;;;;;4.60;99.90;;;;;;5004139;28;20017;-80
2023/04/25 06:59:38;;;;;;;;;;;4.60;99.90;;;;;;5021592;28;20025;-80
2023/04/25 07:02:05;;;;;;;;;;;4.70;99.90;;;;;;5021009;28;19925;-81
2023/04/25 07:04:32;;;;;;;;;;;4.70;99.90;;;;;;5021096;28;20707;-80
2023/04/25 07:07:02;;;;;;;;;;;4.80;99.90;;;;;;5021219;28;19920;-79
2023/04/25 07:09:29;;;;;;;;;;;4.90;99.90;;;;;;5018984;28;20147;-80
2023/04/25 07:11:56;;;;;;;;;;;4.90;99.90;;;;;;5020874;28;19952;-80
2023/04/25 07:14:23;;;;;;;;;;;4.90;99.90;;;;;;5020394;28;19971;-80
2023/04/25 07:16:50;;;;;;;;;;;5.00;99.90;;;;;;5018186;28;19922;-80
2023/04/25 07:19:17;;;;;;;;;;;5.00;99.90;;;;;;5017261;28;20282;-80
2023/04/25 07:21:44;;;;;;;;;;;5.00;99.90;;;;;;5017041;28;19921;-79
2023/04/25 07:24:11;;;;;;;;;;;5.10;99.90;;;;;;5033773;28;20421;-80
2023/04/25 07:26:38;;;;;;;;;;;5.10;99.90;;;;;;5021590;28;20023;-80
2023/04/25 07:29:04;;;;;;;;;;;5.20;99.90;;;;;;5023355;28;19968;-80
2023/04/25 07:31:31;;;;;;;;;;;5.30;99.90;;;;;;5018512;28;19925;-80
2023/04/25 07:33:58;;;;;;;;;;;5.40;99.90;;;;;;5017252;28;19925;-79
2023/04/25 07:36:27;;;;;;;;;;;5.40;99.90;;;;;;5032024;28;19951;-79
2023/04/25 07:38:54;;;;;;;;;;;5.40;99.90;;;;;;5014708;28;19925;-81
2023/04/25 07:41:21;;;;;;;;;;;5.40;99.90;;;;;;5024760;28;19993;-79
2023/04/25 07:43:48;;;;;;;;;;;5.50;99.90;;;;;;5015888;28;20095;-82
2023/04/25 07:46:15;;;;;;;;;;;5.50;99.90;;;;;;5020722;28;20339;-84
2023/04/25 07:48:41;;;;;;;;;;;5.50;99.90;;;;;;5015197;28;20055;-82
2023/04/25 07:51:08;;;;;;;;;;;5.50;99.90;;;;;;5013089;28;20328;-81
2023/04/25 07:53:37;;;;;;;;;;;5.50;99.90;;;;;;5013946;28;20012;-82
2023/04/25 07:56:04;;;;;;;;;;;5.50;99.90;;;;;;5047563;28;19943;-81
2023/04/25 07:58:31;;;;;;;;;;;5.70;99.90;;;;;;5018692;28;20048;-81
2023/04/25 08:00:58;;;;;;;;;;;5.70;99.90;;;;;;5017905;28;20015;-81
2023/04/25 08:03:25;;;;;;;;;;;5.70;99.90;;;;;;5022028;28;19921;-82
2023/04/25 08:05:52;;;;;;;;;;;5.80;99.90;;;;;;5014804;28;19925;-81
2023/04/25 08:08:20;;;;;;;;;;;5.90;99.90;;;;;;5024331;28;19930;-81
2023/04/25 08:10:48;;;;;;;;;;;5.90;99.90;;;;;;5014250;28;19925;-82
2023/04/25 08:13:15;;;;;;;;;;;6.00;99.90;;;;;;5017824;28;20226;-82
2023/04/25 08:15:42;;;;;;;;;;;6.00;99.90;;;;;;5035487;28;19925;-81
2023/04/25 08:18:09;;;;;;;;;;;6.10;99.90;;;;;;5019405;28;19921;-81
2023/04/25 08:20:35;;;;;;;;;;;6.20;99.90;;;;;;5037620;28;19925;-81
2023/04/25 08:23:02;;;;;;;;;;;6.30;99.90;;;;;;5018175;28;19948;-82
2023/04/25 08:25:30;;;;;;;;;;;6.30;99.90;;;;;;5017393;28;19921;-81
2023/04/25 08:27:59;;;;;;;;;;;6.30;99.90;;;;;;5036123;28;19925;-81
2023/04/25 08:30:26;;;;;;;;;;;6.50;99.90;;;;;;5022054;28;19999;-81
2023/04/25 08:32:53;;;;;;;;;;;6.60;99.90;;;;;;5019042;28;19932;-82
2023/04/25 08:35:20;;;;;;;;;;;6.70;99.90;;;;;;5018918;28;19932;-81
2023/04/25 08:37:49;;;;;;;;;;;6.70;99.90;;;;;;5020269;28;19925;-81
2023/04/25 08:40:15;;;;;;;;;;;6.80;99.90;;;;;;5020939;28;20015;-81
2023/04/25 08:42:43;;;;;;;;;;;6.80;99.90;;;;;;5019075;28;19925;-81
2023/04/25 08:45:10;;;;;;;;;;;6.90;99.90;;;;;;5021847;28;20032;-82
2023/04/25 08:47:37;;;;;;;;;;;7.00;99.90;;;;;;5022658;28;20047;-80
2023/04/25 08:50:05;;;;;;;;;;;7.10;99.90;;;;;;5019001;28;20335;-81
2023/04/25 08:52:43;;;;;;;;;;;7.20;99.90;;;;;;5024337;28;20503;-81
2023/04/25 08:55:10;;;;;;;;;;;7.20;99.90;;;;;;5016709;28;20001;-80
2023/04/25 08:57:37;;;;;;;;;;;7.30;99.90;;;;;;5019211;28;19948;-81
2023/04/25 09:00:05;;;;;;;;;;;7.40;99.90;;;;;;5017498;28;19925;-82
2023/04/25 09:02:32;;;;;;;;;;;7.50;99.90;;;;;;5016118;28;19972;-81
2023/04/25 09:04:59;;;;;;;;;;;7.50;99.90;;;;;;5014667;28;19925;-81
2023/04/25 09:07:26;;;;;;;;;;;7.60;99.90;;;;;;5017024;28;19922;-81
2023/04/25 09:09:53;;;;;;;;;;;7.70;99.90;;;;;;5015778;28;19929;-81
2023/04/25 09:12:20;;;;;;;;;;;7.80;99.90;;;;;;5020311;28;20550;-81
2023/04/25 09:15:04;;;;;;;;;;;7.90;99.90;;;;;;5017026;28;20005;-81
2023/04/25 09:17:33;;;;;;;;;;;8.00;99.90;;;;;;5025167;28;19921;-81
2023/04/25 09:20:07;;;;;;;;;;;8.20;99.90;;;;;;5021858;28;19924;-81
2023/04/25 09:22:34;;;;;;;;;;;8.40;99.90;;;;;;5022197;28;20703;-81
2023/04/25 09:25:08;;;;;;;;;;;8.40;99.90;;;;;;5020749;28;20478;-81
2023/04/25 09:27:35;;;;;;;;;;;8.30;99.90;;;;;;5022523;28;20294;-81
2023/04/25 09:30:01;;;;;;;;;;;8.20;99.90;;;;;;5021412;28;19943;-81
2023/04/25 09:32:28;;;;;;;;;;;8.40;99.90;;;;;;5021521;28;19932;-81
2023/04/25 09:34:56;;;;;;;;;;;8.60;99.90;;;;;;5024801;28;19929;-81
2023/04/25 09:37:24;;;;;;;;;;;8.80;99.90;;;;;;5024042;28;19921;-81
2023/04/25 09:39:52;;;;;;;;;;;9.10;99.90;;;;;;5020639;28;19963;-82
2023/04/25 09:42:20;;;;;;;;;;;9.10;99.90;;;;;;5022242;28;19935;-80
2023/04/25 09:44:47;;;;;;;;;;;9.30;99.90;;;;;;5021283;28;20367;-81
2023/04/25 09:47:15;;;;;;;;;;;9.60;99.90;;;;;;5021822;28;19933;-79
2023/04/25 09:49:42;;;;;;;;;;;9.70;99.90;;;;;;5021508;28;19988;-80
2023/04/25 09:52:09;;;;;;;;;;;9.60;99.90;;;;;;5020762;28;20484;-79
2023/04/25 09:54:36;;;;;;;;;;;9.70;99.90;;;;;;5022763;28;19929;-82
2023/04/25 09:57:08;;;;;;;;;;;9.60;99.90;;;;;;5024681;28;20430;-80
2023/04/25 09:59:35;;;;;;;;;;;9.60;99.90;;;;;;5024782;28;19920;-80
2023/04/25 10:02:02;;;;;;;;;;;9.70;99.90;;;;;;5022282;28;19925;-80
2023/04/25 10:04:29;;;;;;;;;;;9.90;99.90;;;;;;5021372;28;19931;-80
2023/04/25 10:06:59;;;;;;;;;;;10.10;99.90;;;;;;5024566;28;20341;-80
2023/04/25 10:09:27;;;;;;;;;;;10.40;99.90;;;;;;5023189;28;20369;-80
2023/04/25 10:11:54;;;;;;;;;;;10.40;99.90;;;;;;5024687;28;20015;-83
2023/04/25 10:14:22;;;;;;;;;;;10.60;99.90;;;;;;5024119;28;19931;-80
2023/04/25 10:16:49;;;;;;;;;;;10.70;99.90;;;;;;5020984;28;19928;-81
2023/04/25 10:19:15;;;;;;;;;;;10.90;99.90;;;;;;5017899;28;20281;-80
2023/04/25 10:21:44;;;;;;;;;;;10.90;99.90;;;;;;5021076;28;19942;-80
2023/04/25 10:24:11;;;;;;;;;;;11.10;99.90;;;;;;5017421;28;19925;-83
2023/04/25 10:26:38;;;;;;;;;;;11.30;99.90;;;;;;5016353;28;19963;-80
2023/04/25 10:29:05;;;;;;;;;;;11.40;99.90;;;;;;5017010;28;19925;-82
2023/04/25 10:31:32;;;;;;;;;;;11.30;99.90;;;;;;5017177;28;19921;-81
2023/04/25 10:33:59;;;;;;;;;;;11.40;99.20;;;;;;5017376;28;19922;-82
2023/04/25 10:36:27;;;;;;;;;;;11.70;99.90;;;;;;5017533;28;20005;-82
2023/04/25 10:38:54;;;;;;;;;;;11.60;99.80;;;;;;5020529;28;19925;-82
2023/04/25 10:41:22;;;;;;;;;;;11.50;99.90;;;;;;5019726;28;19999;-82
2023/04/25 10:43:50;;;;;;;;;;;11.20;99.00;;;;;;5017125;28;19936;-82
2023/04/25 10:46:18;;;;;;;;;;;11.00;99.90;;;;;;5003191;28;19932;-82
2023/04/25 10:48:51;;;;;;;;;;;11.00;98.90;;;;;;5013043;28;19924;-82
2023/04/25 10:51:18;;;;;;;;;;;11.00;99.90;;;;;;5023906;28;20464;-82
2023/04/25 10:53:46;;;;;;;;;;;11.10;97.60;;;;;;5021686;28;20079;-83
2023/04/25 10:56:19;;;;;;;;;;;11.30;97.60;;;;;;5036054;28;19921;-81
2023/04/25 10:58:46;;;;;;;;;;;11.30;98.20;;;;;;5019237;28;20039;-82
2023/04/25 11:01:19;;;;;;;;;;;11.30;98.20;;;;;;5020138;28;19928;-82
2023/04/25 11:03:47;;;;;;;;;;;11.40;99.40;;;;;;5020050;28;19937;-81
2023/04/25 11:06:22;;;;;;;;;;;11.40;98.50;;;;;;5036996;28;19920;-82
2023/04/25 11:08:49;;;;;;;;;;;11.60;98.80;;;;;;5019103;28;20387;-81
2023/04/25 11:11:17;;;;;;;;;;;12.00;98.20;;;;;;5019817;28;19928;-82
2023/04/25 11:13:44;;;;;;;;;;;12.30;97.00;;;;;;5016297;28;20665;-81
2023/04/25 11:16:11;;;;;;;;;;;12.20;95.70;;;;;;5020179;28;19988;-82
2023/04/25 11:18:43;;;;;;;;;;;12.20;98.10;;;;;;5021857;28;19978;-81
2023/04/25 11:21:11;;;;;;;;;;;11.70;95.00;;;;;;5020231;28;19956;-80
2023/04/25 11:23:37;;;;;;;;;;;11.50;95.60;;;;;;5018144;28;19932;-81
2023/04/25 11:26:04;;;;;;;;;;;11.40;95.30;;;;;;5018813;28;20008;-81
2023/04/25 11:28:31;;;;;;;;;;;11.40;95.60;;;;;;5021546;28;20320;-81
2023/04/25 11:30:58;;;;;;;;;;;11.40;97.70;;;;;;5021057;28;19921;-83
2023/04/25 11:33:25;;;;;;;;;;;11.30;96.40;;;;;;5024052;28;19972;-85
2023/04/25 11:35:58;;;;;;;;;;;11.40;98.00;;;;;;5024979;28;19964;-80
2023/04/25 11:38:24;;;;;;;;;;;11.20;96.70;;;;;;5021921;28;20379;-81
2023/04/25 11:40:53;;;;;;;;;;;11.20;97.00;;;;;;5022381;28;19921;-83
2023/04/25 11:43:20;;;;;;;;;;;11.20;96.50;;;;;;5032189;28;20379;-84
2023/04/25 11:45:50;;;;;;;;;;;11.20;95.30;;;;;;5016898;28;20285;-84
2023/04/25 11:48:18;;;;;;;;;;;11.30;95.60;;;;;;5017147;28;19924;-82
2023/04/25 11:50:47;;;;;;;;;;;11.80;97.00;;;;;;5020385;28;20550;-80
2023/04/25 11:53:14;;;;;;;;;;;12.40;95.60;;;;;;5019823;28;19968;-82
2023/04/25 11:55:41;;;;;;;;;;;13.10;95.60;;;;;;5020117;28;20254;-80
2023/04/25 11:58:08;;;;;;;;;;;13.70;96.20;;;;;;5029304;28;19932;-80
2023/04/25 12:00:35;;;;;;;;;;;14.20;95.10;;;;;;5018165;28;19920;-81
2023/04/25 12:03:02;;;;;;;;;;;13.80;91.40;;;;;;5031594;28;19961;-80
2023/04/25 12:05:32;;;;;;;;;;;13.40;90.80;;;;;;5019404;28;20734;-80
2023/04/25 12:08:14;;;;;;;;;;;13.00;92.10;;;;;;5018726;28;19960;-80
2023/04/25 12:10:41;;;;;;;;;;;12.50;93.10;;;;;;5016732;28;19925;-81
2023/04/25 12:13:21;;;;;;;;;;;12.20;92.60;;;;;;5020102;28;19921;-80
2023/04/25 12:15:48;;;;;;;;;;;12.10;94.30;;;;;;5029072;28;21684;-81
2023/04/25 12:18:18;;;;;;;;;;;12.60;95.30;;;;;;5035585;28;19928;-81
2023/04/25 12:20:45;;;;;;;;;;;13.10;93.10;;;;;;5023596;28;20264;-81
2023/04/25 12:23:12;;;;;;;;;;;13.40;93.70;;;;;;5043111;28;19931;-81
2023/04/25 12:25:43;;;;;;;;;;;14.10;92.70;;;;;;5025786;28;19921;-81
2023/04/25 12:28:10;;;;;;;;;;;14.60;91.60;;;;;;5029553;28;19982;-80
2023/04/25 12:30:56;;;;;;;;;;;15.30;89.60;;;;;;5015407;28;19999;-81
2023/04/25 12:33:23;;;;;;;;;;;15.70;91.30;;;;;;5018707;28;20347;-80
2023/04/25 12:35:50;;;;;;;;;;;16.30;90.40;;;;;;5019804;28;20271;-81
2023/04/25 12:38:23;;;;;;;;;;;16.70;85.60;;;;;;5028063;28;20376;-80
2023/04/25 12:40:50;;;;;;;;;;;17.00;86.50;;;;;;5018757;28;20261;-81
2023/04/25 12:43:17;;;;;;;;;;;17.60;85.10;;;;;;5018732;28;20016;-80
2023/04/25 12:45:45;;;;;;;;;;;17.00;87.70;;;;;;5021177;28;19947;-80
2023/04/25 12:48:11;;;;;;;;;;;16.30;83.80;;;;;;5020922;28;19964;-80
2023/04/25 12:50:38;;;;;;;;;;;15.60;83.60;;;;;;5013234;28;20051;-80
2023/04/25 12:53:05;;;;;;;;;;;15.10;88.10;;;;;;5015403;28;19969;-81
2023/04/25 12:55:32;;;;;;;;;;;14.70;88.20;;;;;;5028718;28;19925;-81
2023/04/25 12:57:59;;;;;;;;;;;14.30;86.80;;;;;;5015979;28;19925;-82
2023/04/25 13:00:26;;;;;;;;;;;14.20;84.10;;;;;;5013940;28;19994;-81
2023/04/25 13:02:53;;;;;;;;;;;13.90;86.60;;;;;;5022252;28;19966;-81
2023/04/25 13:05:20;;;;;;;;;;;13.50;83.80;;;;;;5012123;28;19932;-81
2023/04/25 13:07:47;;;;;;;;;;;13.40;82.50;;;;;;5010292;28;20020;-82
2023/04/25 13:10:13;;;;;;;;;;;13.20;81.90;;;;;;5010281;28;19925;-81
2023/04/25 13:12:40;;;;;;;;;;;13.30;85.00;;;;;;5010433;28;20420;-81
2023/04/25 13:15:09;;;;;;;;;;;14.00;83.60;;;;;;5015134;28;19925;-83
2023/04/25 13:17:35;;;;;;;;;;;15.50;82.10;;;;;;5008773;28;19925;-82
2023/04/25 13:20:04;;;;;;;;;;;16.80;81.70;;;;;;5022158;28;19921;-82
2023/04/25 13:22:31;;;;;;;;;;;18.20;75.40;;;;;;5018086;28;20068;-83
2023/04/25 13:24:58;;;;;;;;;;;18.80;72.30;;;;;;5017136;28;19951;-83
2023/04/25 13:27:25;;;;;;;;;;;18.80;72.70;;;;;;5018898;28;19921;-83
2023/04/25 13:29:51;;;;;;;;;;;17.60;72.50;;;;;;5020667;28;19921;-82
2023/04/25 13:32:18;;;;;;;;;;;16.30;77.10;;;;;;5021175;28;20351;-81
2023/04/25 13:34:45;;;;;;;;;;;15.40;78.80;;;;;;5022587;28;19925;-82
2023/04/25 13:37:12;;;;;;;;;;;15.10;82.90;;;;;;5021264;28;19933;-81
2023/04/25 13:39:39;;;;;;;;;;;14.90;80.00;;;;;;5017215;28;20385;-82
2023/04/25 13:42:06;;;;;;;;;;;14.60;80.30;;;;;;5003082;28;19929;-82
2023/04/25 13:44:33;;;;;;;;;;;14.50;83.40;;;;;;5007124;28;19925;-81
2023/04/25 13:47:00;;;;;;;;;;;14.50;80.10;;;;;;5003013;28;19925;-81
2023/04/25 13:49:27;;;;;;;;;;;14.50;80.80;;;;;;5017933;28;19921;-80
2023/04/25 13:51:54;;;;;;;;;;;14.30;81.10;;;;;;5018362;28;20401;-81
2023/04/25 13:54:20;;;;;;;;;;;14.30;79.90;;;;;;5034739;28;19931;-81
2023/04/25 13:56:48;;;;;;;;;;;14.10;80.50;;;;;;5021032;28;20296;-80
2023/04/25 13:59:17;;;;;;;;;;;13.80;79.00;;;;;;5017433;28;19926;-81
2023/04/25 14:01:44;;;;;;;;;;;13.60;83.20;;;;;;5018589;28;20334;-83
2023/04/25 14:04:11;;;;;;;;;;;13.50;81.90;;;;;;5024267;28;20386;-86
2023/04/25 14:06:41;;;;;;;;;;;13.50;84.60;;;;;;5042609;28;19924;-85
2023/04/25 14:09:10;;;;;;;;;;;13.50;83.20;;;;;;5024116;28;20509;-86
2023/04/25 14:11:36;;;;;;;;;;;13.70;84.80;;;;;;5025680;28;19925;-86
2023/04/25 14:14:03;;;;;;;;;;;13.70;83.40;;;;;;5022369;28;19943;-85
2023/04/25 14:16:31;;;;;;;;;;;13.80;84.50;;;;;;5021267;28;19924;-84
2023/04/25 14:18:58;;;;;;;;;;;13.60;80.40;;;;;;5016454;28;20376;-85
2023/04/25 14:21:26;;;;;;;;;;;13.60;81.10;;;;;;5014420;28;21726;-85
2023/04/25 14:23:54;;;;;;;;;;;13.70;79.90;;;;;;5037149;28;19921;-84
2023/04/25 14:26:21;;;;;;;;;;;13.80;81.40;;;;;;5023707;28;20387;-85